Página principal
METAR-TAF:

METAR-TAF

Aeroportos :

Armilla

Granada, Espanha

latitude: 37-08N, longitude: 003-38-08W, altura: 700 m

Observação actual do tempo

O boletim foi feito há 58 minutos, às 14:00 UTC
Vento 9 kt de sul
Temperatura 16°C
Humidade 63%
Pressão 1016 hPa
Visibilidade 10 km ou mais
Nuvens fragmentadasa uma altura de 3300 ft
Encobertoa uma altura de 1700 ft

METAR: LEGA 151400Z 18009KT 9999 BKN033 OVC017 16/09 Q1016

Hora: 15:58 (14:58 UTC)

Previsão

O boletim foi feito há 58 minutos, às 14:00 UTC
Previsão válida de 15 às 15 UTC a 15 às 24 UTC
Vento 5 kt de sul
Visibilidade 10 km ou mais
Nuvens dispersasa uma altura de 4000 ft
Probabilidade 40% :
Temporariamente
de 15 às 15 UTC a 15 às 19 UTC
Visibilidade: 4000 m
Nuvens dispersasa uma altura de 3500 ft, Cumulus congestus.
aguaceiros de chuva

TAF: LEGA 151400Z 1515/1524 18005KT 9999 SCT040 PROB40 TEMPO 1515/1519 4000 SHRA SCT035TCU

Observações e previsões do tempo de mais de 4000 aeroportos (mensagens METAR e TAF).

As estações disponíveis são os pontos amarelos e vermelhos sobre o mapa.

Mova o rato sobre o mapa para ver o nome da estação.

Depois clique no ponto para visualizar as observações e previsões meteorológicas.

Para alterar o mapa : clique nos botões verdes com uma cruz preta para aumentar o zoom; no botão verde com uma pitada de zoom; ou nas setas verdes para mapas adjacentes.


METAR-TAF: